Latest Weather Observations for Viewbank

IDV60901

Issued at 6:41 pm EST Thursday 3 September 2015 (issued every 10 minutes, with the page automatically refreshed every 10 minutes)

About weather observations | Map of Melbourne area stations | Latest observations for Melbourne area | Other Formats
Station Details ID: 086068 Name: VIEWBANK Lat: -37.74 Lon: 145.10 Height: 66.1 m
Data from the previous 72 hours. | See also: Recent months at Viewbank
Date/Time
EST
Tmp

°C
App
Tmp
°C
Dew
Point
°C
Rel
Hum
%
Delta-T

°C
Wind Press
QNH
hPa
Press
MSL
hPa
Rain
since
9 am
mm
Dir
 
Spd
km/h
Gust
km/h
Spd
kts
Gust
kts
03/06:30pm 10.6 6.5 6.0 73 2.1 SSW 17 28 9 15 1020.3 1020.3 0.0
03/06:00pm 10.5 5.9 6.3 75 2.0 SSW 20 33 11 18 1019.8 1019.8 0.0
03/05:30pm 11.3 6.7 5.6 68 2.6 SW 19 35 10 19 1019.1 1019.1 0.0
03/05:00pm 12.0 7.4 6.5 69 2.6 SSW 20 33 11 18 1018.7 1018.7 0.0
03/04:30pm 11.9 7.5 7.6 75 2.1 SSW 20 35 11 19 1018.2 1018.2 0.0
03/04:00pm 12.5 7.1 8.2 75 2.1 SSW 26 43 14 23 1017.6 1017.6 0.0
03/03:30pm 13.1 8.7 8.8 75 2.2 SW 22 35 12 19 1017.1 1017.1 0.0
03/03:00pm 12.7 8.6 8.8 77 2.0 SSW 20 32 11 17 1016.7 1016.7 0.0
03/02:30pm 12.7 9.5 9.9 83 1.4 SW 17 26 9 14 1016.4 1016.4 0.0
03/02:00pm 12.7 9.3 10.6 87 1.1 SSW 19 30 10 16 1015.9 1015.9 0.0
03/01:30pm 13.1 10.3 11.3 89 1.0 SW 17 26 9 14 1015.8 1015.8 0.0
03/01:00pm 13.3 9.7 9.7 79 1.8 SSW 19 32 10 17 1015.7 1015.7 0.0
03/12:30pm 13.6 11.2 11.3 86 1.2 SSW 15 24 8 13 1015.5 1015.5 0.0
03/12:00pm 13.0 10.7 11.6 91 0.7 SSW 15 26 8 14 1015.3 1015.3 0.0
03/11:30am 12.9 10.4 11.1 89 0.9 SSW 15 24 8 13 1015.2 1015.2 0.0
03/11:00am 13.0 11.1 11.7 92 0.7 SSW 13 24 7 13 1014.8 1014.8 0.0
03/10:30am 13.5 11.4 11.0 85 1.3 SSW 13 20 7 11 1014.2 1014.2 0.0
03/10:00am 13.6 11.6 10.0 79 1.9 SW 11 22 6 12 1013.7 1013.7 0.0
03/09:30am 12.8 9.2 10.0 83 1.4 SSW 19 28 10 15 1013.1 1013.1 0.0
03/09:00am 12.2 11.0 11.7 97 0.3 SW 9 13 5 7 1012.8 1012.8 4.6
03/08:30am 11.5 9.6 10.6 94 0.5 S 11 19 6 10 1012.0 1012.1 4.6
03/08:00am 11.0 9.9 10.8 99 0.1 SW 7 11 4 6 1011.3 1011.4 4.6
03/07:30am 10.3 8.7 10.3 100 0.0 SW 9 13 5 7 1010.7 1010.7 4.6
03/07:00am 10.1 8.5 10.1 100 0.0 SSW 9 11 5 6 1009.9 1009.9 4.6
03/06:30am 9.9 8.2 9.9 100 0.0 SW 9 11 5 6 1009.4 1009.4 4.6
03/06:00am 10.0 8.9 10.0 100 0.0 WSW 6 7 3 4 1008.9 1008.9 4.6
03/05:30am 10.1 8.5 10.1 100 0.0 SW 9 11 5 6 1008.6 1008.6 4.6
03/05:00am 10.2 9.2 10.2 100 0.0 SW 6 7 3 4 1008.5 1008.5 4.6
03/04:30am 10.4 9.2 10.2 99 0.1 SW 7 9 4 5 1008.2 1008.2 4.6
03/04:00am 10.3 9.2 10.1 99 0.1 SW 6 9 3 5 1007.8 1007.8 4.4
03/03:30am 10.4 9.7 10.2 99 0.1 SW 4 6 2 3 1007.4 1007.4 4.4
03/03:00am 10.2 9.9 10.2 100 0.0 SE 2 7 1 4 1007.2 1007.2 4.4
03/02:30am 10.2 9.9 10.2 100 0.0 ESE 2 7 1 4 1007.2 1007.2 4.4
03/02:00am 10.4 9.4 10.4 100 0.0 S 6 11 3 6 1007.3 1007.3 4.4
03/01:30am 10.2 10.3 10.2 100 0.0 CALM 0 0 0 0 1007.3 1007.3 4.4
03/01:00am 10.3 9.3 10.3 100 0.0 N 6 6 3 3 1007.3 1007.3 4.4
03/12:30am 10.5 9.9 10.5 100 0.0 N 4 9 2 5 1007.5 1007.5 4.4
03/12:00am 10.4 10.6 10.4 100 0.0 CALM 0 0 0 0 1007.4 1007.4 4.4
 
Date/Time
EST
Tmp

°C
App
Tmp
°C
Dew
Point
°C
Rel
Hum
%
Delta-T

°C
Wind Press
QNH
hPa
Press
MSL
hPa
Rain
since
9 am
mm
Dir
 
Spd
km/h
Gust
km/h
Spd
kts
Gust
kts
02/11:30pm 10.5 8.6 10.5 100 0.0 ENE 11 17 6 9 1007.2 1007.2 4.4
02/11:00pm 10.5 7.5 10.5 100 0.0 ENE 17 22 9 12 1007.2 1007.2 4.4
02/10:30pm 10.5 8.6 10.5 100 0.0 E 11 17 6 9 1007.6 1007.6 4.2
02/10:00pm 10.7 9.8 10.7 100 0.0 NE 6 7 3 4 1008.1 1008.1 4.0
02/09:30pm 10.7 10.6 10.7 100 0.0 NE 2 7 1 4 1008.2 1008.2 3.8
02/09:00pm 10.9 10.1 10.9 100 0.0 ENE 6 7 3 4 1008.3 1008.3 3.8
02/08:30pm 11.3 10.5 11.1 99 0.1 ENE 6 9 3 5 1008.6 1008.6 3.6
02/08:00pm 11.3 11.3 11.1 99 0.1 E 2 9 1 5 1008.4 1008.4 3.4
02/07:30pm 11.6 12.0 11.4 99 0.1 CALM 0 6 0 3 1008.4 1008.4 2.8
02/07:00pm 11.7 11.8 11.5 99 0.1 E 2 7 1 4 1008.2 1008.2 2.2
02/06:30pm 12.6 11.7 10.5 87 1.1 NNE 6 7 3 4 1008.1 1008.1 1.4
02/06:00pm 13.7 12.1 7.9 68 2.9 NE 6 11 3 6 1007.8 1007.8 0.4
02/05:30pm 14.6 13.4 6.4 58 4.0 NE 2 7 1 4 1007.5 1007.5 0.0
02/05:00pm 15.3 13.1 6.1 54 4.5 NE 7 11 4 6 1007.0 1007.0 0.0
02/04:30pm 15.5 14.3 6.5 55 4.4 NNE 2 7 1 4 1007.0 1007.0 0.0
02/04:00pm 16.0 13.4 5.9 51 4.9 NE 9 13 5 7 1006.9 1006.9 0.0
02/03:30pm 16.3 13.2 5.6 49 5.2 NE 11 20 6 11 1006.9 1006.9 0.0
02/03:00pm 16.4 13.2 5.1 47 5.4 NE 11 26 6 14 1007.1 1007.1 0.0
02/02:30pm 16.7 13.7 6.2 50 5.1 NNE 11 20 6 11 1007.4 1007.4 0.0
02/02:00pm 16.9 13.2 6.1 49 5.3 ENE 15 24 8 13 1007.9 1007.9 0.0
02/01:30pm 17.3 13.3 6.5 49 5.3 NE 17 30 9 16 1008.6 1008.6 0.0
02/01:00pm 18.0 15.1 8.0 52 5.1 NE 13 24 7 13 1009.1 1009.1 0.0
02/12:30pm 15.8 12.1 6.3 53 4.6 NE 15 32 8 17 1009.7 1009.7 0.0
02/12:00pm 15.9 12.3 6.9 55 4.4 NE 15 24 8 13 1010.2 1010.2 0.0
02/11:30am 15.4 11.1 6.9 57 4.2 NNE 19 32 10 17 1010.8 1010.8 0.0
02/11:00am 14.7 10.6 6.3 57 4.1 NE 17 30 9 16 1011.2 1011.2 0.0
02/10:30am 14.6 10.9 6.2 57 4.0 NE 15 28 8 15 1011.6 1011.7 0.0
02/10:00am 13.2 9.9 6.3 63 3.3 NE 13 28 7 15 1012.0 1012.1 0.0
02/09:30am 12.6 8.4 5.5 62 3.3 NE 17 33 9 18 1012.1 1012.2 0.0
02/09:00am 12.5 9.1 5.9 64 3.1 NE 13 24 7 13 1012.7 1012.7 0.0
02/08:30am 12.0 9.1 6.3 68 2.7 NE 11 19 6 10 1012.9 1012.9 0.0
02/08:00am 10.9 8.2 5.7 70 2.4 NE 9 13 5 7 1012.9 1012.9 0.0
02/07:30am 10.1 7.4 5.5 73 2.1 NE 9 17 5 9 1013.0 1013.0 0.0
02/07:00am 9.8 7.0 5.2 73 2.1 NE 9 15 5 8 1012.8 1012.8 0.0
02/06:30am 9.1 5.6 5.3 77 1.7 ENE 13 17 7 9 1012.7 1012.7 0.0
02/06:00am 8.1 4.6 5.4 83 1.2 ENE 13 17 7 9 1012.7 1012.7 0.0
02/05:30am 7.8 4.6 5.1 83 1.2 ENE 11 13 6 7 1012.7 1012.7 0.0
02/05:00am 8.1 5.2 4.9 80 1.4 NE 9 13 5 7 1012.8 1012.8 0.0
02/04:30am 8.0 5.8 5.1 82 1.3 NE 6 9 3 5 1012.9 1012.9 0.0
02/04:00am 6.8 4.3 4.6 86 1.0 ENE 7 9 4 5 1012.9 1012.9 0.0
02/03:30am 6.5 4.2 4.7 88 0.8 ENE 6 9 3 5 1012.8 1012.8 0.0
02/03:00am 6.2 3.3 4.5 89 0.7 ENE 9 13 5 7 1013.0 1013.0 0.0
02/02:30am 6.1 3.2 4.7 91 0.6 ENE 9 13 5 7 1013.4 1013.4 0.0
02/02:00am 6.4 3.5 4.7 89 0.7 ENE 9 9 5 5 1013.7 1013.7 0.0
02/01:30am 6.4 3.6 5.0 91 0.6 ENE 9 13 5 7 1013.7 1013.7 0.0
02/01:00am 6.5 4.1 5.3 92 0.5 ENE 7 9 4 5 1013.7 1013.7 0.0
02/12:30am 6.6 4.3 5.6 93 0.4 ENE 7 9 4 5 1013.9 1013.9 0.0
02/12:00am 6.9 4.5 5.4 90 0.7 ENE 7 11 4 6 1013.9 1013.9 0.0
 
Date/Time
EST
Tmp

°C
App
Tmp
°C
Dew
Point
°C
Rel
Hum
%
Delta-T

°C
Wind Press
QNH
hPa
Press
MSL
hPa
Rain
since
9 am
mm
Dir
 
Spd
km/h
Gust
km/h
Spd
kts
Gust
kts
01/11:30pm 7.3 4.1 5.1 86 1.0 ENE 11 13 6 7 1014.1 1014.1 0.0
01/11:00pm 8.0 5.4 4.4 78 1.6 ENE 7 11 4 6 1014.2 1014.2 0.0
01/10:30pm 8.7 7.1 4.5 75 1.9 NE 2 6 1 3 1014.3 1014.3 0.0
01/10:00pm 8.5 6.0 4.7 77 1.7 NE 7 11 4 6 1014.6 1014.6 0.0
01/09:30pm 9.0 7.9 5.0 76 1.8 CALM 0 2 0 1 1014.6 1014.6 0.0
01/09:00pm 9.3 7.4 4.7 73 2.1 NNE 4 7 2 4 1014.5 1014.5 0.0
01/08:30pm 10.2 9.0 4.8 69 2.4 CALM 0 7 0 4 1014.3 1014.3 0.0
01/08:00pm 10.5 8.6 5.1 69 2.5 NNE 4 7 2 4 1014.0 1014.0 0.0
01/07:30pm 11.0 9.2 5.3 68 2.6 NNE 4 9 2 5 1014.0 1014.0 0.0
01/07:00pm 11.9 9.7 5.3 64 3.1 NE 6 13 3 7 1013.8 1013.8 0.0
01/06:30pm 12.4 10.2 5.1 61 3.4 NNE 6 9 3 5 1013.6 1013.6 0.0
01/06:00pm 13.2 11.6 4.4 55 4.0 NE 2 7 1 4 1013.3 1013.3 0.0
01/05:30pm 13.8 11.3 4.9 55 4.1 NNE 7 15 4 8 1013.2 1013.2 0.0
01/05:00pm 14.7 11.7 4.1 49 4.9 NNE 9 17 5 9 1013.0 1013.0 0.0
01/04:30pm 14.9 12.1 3.4 46 5.2 NNE 7 15 4 8 1013.2 1013.2 0.0
01/04:00pm 15.9 12.9 4.3 46 5.4 N 9 19 5 10 1013.2 1013.2 0.0
01/03:30pm 15.9 13.1 3.0 42 5.9 N 7 13 4 7 1013.4 1013.4 0.0
01/03:00pm 15.5 12.3 3.3 44 5.6 N 9 19 5 10 1013.8 1013.8 0.0
01/02:30pm 15.2 12.2 4.3 48 5.1 N 9 17 5 9 1013.9 1013.9 0.0
01/02:00pm 14.9 12.0 2.4 43 5.6 N 7 13 4 7 1014.2 1014.2 0.0
01/01:30pm 15.0 12.2 5.2 52 4.6 NNE 9 13 5 7 1014.6 1014.6 0.0
01/01:00pm 14.8 13.5 6.1 56 4.2 NE 2 7 1 4 1015.3 1015.3 0.0
01/12:30pm 13.3 10.8 4.5 55 4.0 NNE 7 15 4 8 1015.9 1015.9 0.0
01/12:00pm 12.5 9.9 4.0 56 3.8 N 7 15 4 8 1016.6 1016.6 0.0
01/11:30am 12.1 9.6 5.0 62 3.3 NNE 7 17 4 9 1017.0 1017.0 0.0
01/11:00am 11.4 8.8 4.4 62 3.2 NW 7 13 4 7 1017.3 1017.3 0.0
01/10:30am 9.9 8.0 5.1 72 2.2 NE 4 7 2 4 1017.3 1017.3 0.0
01/10:00am 8.7 6.7 6.2 84 1.1 ENE 6 9 3 5 1017.5 1017.5 0.0
01/09:30am 7.3 6.5 6.4 94 0.4 CALM 0 6 0 3 1017.5 1017.6 0.0
01/09:00am 6.0 3.9 5.9 99 0.0 E 6 9 3 5 1017.5 1017.6 0.0
01/08:30am 5.1 2.8 5.0 99 0.0 ENE 6 9 3 5 1017.7 1017.8 0.0
01/08:00am 4.0 2.3 4.0 100 0.0 ENE 2 7 1 4 1017.6 1017.7 0.0
01/07:30am 3.7 2.3 3.7 100 0.0 CALM 0 4 0 2 1017.2 1017.3 0.0
01/07:00am 3.1 0.5 3.1 100 0.0 ENE 6 9 3 5 1017.1 1017.2 0.0
01/06:30am 3.1 0.3 3.1 100 0.0 ENE 7 9 4 5 1016.8 1016.9 0.0
01/06:00am 3.7 1.0 3.7 100 0.0 ENE 7 9 4 5 1016.7 1016.7 0.0
01/05:30am 4.1 1.5 4.1 100 0.0 E 7 7 4 4 1016.9 1017.0 0.0
01/05:00am 4.7 1.4 4.6 99 0.0 ENE 11 15 6 8 1016.9 1017.0 0.0
01/04:30am 5.5 2.4 5.4 99 0.0 ENE 11 15 6 8 1016.8 1016.9 0.0
01/04:00am 6.6 4.6 6.3 98 0.1 ENE 6 9 3 5 1017.0 1017.1 0.0
01/03:30am 7.4 4.5 4.9 84 1.1 E 9 11 5 6 1017.2 1017.3 0.0
01/03:00am 8.2 6.6 2.7 68 2.3 CALM 0 0 0 0 1017.3 1017.4 0.0
01/02:30am 8.6 7.1 2.8 67 2.5 CALM 0 0 0 0 1017.6 1017.7 0.0
01/02:00am 8.9 7.3 2.5 64 2.7 CALM 0 6 0 3 1018.0 1018.1 0.0
01/01:30am 8.9 6.2 2.9 66 2.6 SSW 6 7 3 4 1018.4 1018.5 0.0
01/01:00am 9.2 6.7 3.6 68 2.4 SSW 6 9 3 5 1018.5 1018.6 0.0
01/12:30am 9.4 6.6 3.2 65 2.7 SSW 7 11 4 6 1018.5 1018.6 0.0
01/12:00am 9.5 6.3 3.3 65 2.7 S 9 13 5 7 1018.4 1018.5 0.0
 
Date/Time
EST
Tmp

°C
App
Tmp
°C
Dew
Point
°C
Rel
Hum
%
Delta-T

°C
Wind Press
QNH
hPa
Press
MSL
hPa
Rain
since
9 am
mm
Dir
 
Spd
km/h
Gust
km/h
Spd
kts
Gust
kts
31/11:30pm 9.5 6.5 3.9 68 2.5 SSW 9 15 5 8 1018.5 1018.6 0.0
31/11:00pm 9.5 7.0 4.9 73 2.1 SSW 7 11 4 6 1018.7 1018.8 0.0
31/10:30pm 9.5 6.3 5.1 74 2.0 SSW 11 15 6 8 1018.7 1018.8 0.0
31/10:00pm 9.5 7.1 5.1 74 2.0 S 7 13 4 7 1018.9 1019.0 0.0
31/09:30pm 9.4 7.2 5.2 75 1.9 S 6 7 3 4 1019.0 1019.1 0.0
31/09:00pm 9.5 8.1 5.3 75 1.9 SSE 2 7 1 4 1019.1 1019.2 0.0
31/08:30pm 9.6 7.2 5.2 74 2.0 S 7 11 4 6 1019.1 1019.2 0.0
31/08:00pm 9.7 6.9 5.1 73 2.1 S 9 13 5 7 1019.0 1019.1 0.0
31/07:30pm 9.6 6.7 4.8 72 2.2 S 9 17 5 9 1018.8 1018.9 0.0
31/07:00pm 9.8 6.5 4.6 70 2.3 SSW 11 15 6 8 1018.7 1018.8 0.0

Latest Capital City Observations: Canberra | Sydney | Melbourne | Brisbane | Adelaide | Perth | Hobart | Darwin

Other Formats:

Comma delimited format used in spreadsheet applications
http://www.bom.gov.au/fwo/IDV60901/IDV60901.95874.axf

JavaScript Object Notation format (JSON) in row-major order
http://www.bom.gov.au/fwo/IDV60901/IDV60901.95874.json